MCZ weather

Martin County Airport
Williamston, North Carolina, United States

Public forecast

Using degrees Fahrenheit for public forecast. Weather courtesy of forecast.io.

Closest aviation weather report (METAR) to Martin County Airport

Closest report is Pitt Greenville Airport, 17.0 nm (31.4 km) SW. Retrieved 2019/10/19 09:35 UTC (0 seconds ago):

KPGV 190935Z AUTO 00000KT 7SM CLR 04/03 A3008 RMK AO2

Closest aviation forecast (TAF) to Martin County Airport

Closest forecast is Pitt Greenville Airport, 17.0 nm (31.4 km) SW. Retrieved 2019/10/19 06:36 UTC (3 hours ago):

TAF KPGV 190535Z 1906/2006 00000KT P6SM FEW250 FM191800 13006KT P6SM BKN110 FM200000 10007G12KT 5SM RA OVC020 FM200200 09010G18KT 2SM +RA OVC008 AMD LTD TO CLD VIS AND WIND